LWM weather

Lawrence Municipal Airport
Lawrence, Massachusetts, United States

Public forecast

Using degrees Fahrenheit for public forecast. Weather courtesy of forecast.io.

METAR (pilot weather report)

Retrieved 2019/08/23 20:54 UTC (58 minutes ago):

KLWM 232054Z 33004KT 10SM CLR 23/13 A2997 RMK AO2 SLP148 T02330128 53001

TAF (pilot weather forecast)

Closest forecast is Laurence G Hanscom Field, 16.5 nm (30.6 km) SSW. Retrieved 2019/08/23 18:30 UTC (3 hours ago):

TAF KBED 231728Z 2318/2418 32006KT P6SM FEW030 SCT100 FM232300 34006KT P6SM SCT120 FM241500 02005KT P6SM SKC